sensor_id;sensor_type;location;lat;lon;timestamp;P1;durP1;ratioP1;P2;durP2;ratioP2
49728;SDS011;66333;49.798;10.968;2023-11-21T00:01:15;3.05;;;0.82;;
49728;SDS011;66333;49.798;10.968;2023-11-21T00:03:42;3.75;;;1.15;;
49728;SDS011;66333;49.798;10.968;2023-11-21T00:06:10;3.05;;;1.00;;
49728;SDS011;66333;49.798;10.968;2023-11-21T00:08:37;3.42;;;1.00;;
49728;SDS011;66333;49.798;10.968;2023-11-21T00:11:04;4.32;;;1.10;;
49728;SDS011;66333;49.798;10.968;2023-11-21T00:13:31;2.90;;;1.00;;
49728;SDS011;66333;49.798;10.968;2023-11-21T00:15:58;3.28;;;0.90;;
49728;SDS011;66333;49.798;10.968;2023-11-21T00:18:24;2.90;;;1.00;;
49728;SDS011;66333;49.798;10.968;2023-11-21T00:20:51;2.90;;;0.90;;
49728;SDS011;66333;49.798;10.968;2023-11-21T00:23:19;3.65;;;1.10;;
49728;SDS011;66333;49.798;10.968;2023-11-21T00:25:45;2.65;;;0.90;;
49728;SDS011;66333;49.798;10.968;2023-11-21T00:28:12;3.78;;;1.10;;
49728;SDS011;66333;49.798;10.968;2023-11-21T00:30:38;3.05;;;1.00;;
49728;SDS011;66333;49.798;10.968;2023-11-21T00:33:05;2.85;;;1.02;;
49728;SDS011;66333;49.798;10.968;2023-11-21T00:35:31;3.13;;;0.98;;
49728;SDS011;66333;49.798;10.968;2023-11-21T00:37:57;3.35;;;1.10;;
49728;SDS011;66333;49.798;10.968;2023-11-21T00:40:25;3.65;;;1.05;;
49728;SDS011;66333;49.798;10.968;2023-11-21T00:42:52;3.08;;;0.90;;
49728;SDS011;66333;49.798;10.968;2023-11-21T00:45:18;3.47;;;1.00;;
49728;SDS011;66333;49.798;10.968;2023-11-21T00:47:45;2.70;;;1.08;;
49728;SDS011;66333;49.798;10.968;2023-11-21T00:50:11;3.60;;;1.10;;
49728;SDS011;66333;49.798;10.968;2023-11-21T00:52:38;3.33;;;1.02;;
49728;SDS011;66333;49.798;10.968;2023-11-21T00:55:07;3.25;;;1.10;;
49728;SDS011;66333;49.798;10.968;2023-11-21T00:57:36;2.58;;;0.88;;
49728;SDS011;66333;49.798;10.968;2023-11-21T01:00:03;3.20;;;0.90;;
49728;SDS011;66333;49.798;10.968;2023-11-21T01:02:34;4.30;;;1.00;;
49728;SDS011;66333;49.798;10.968;2023-11-21T01:05:01;4.25;;;0.90;;
49728;SDS011;66333;49.798;10.968;2023-11-21T01:07:28;2.88;;;1.00;;
49728;SDS011;66333;49.798;10.968;2023-11-21T01:09:55;2.28;;;0.77;;
49728;SDS011;66333;49.798;10.968;2023-11-21T01:12:21;3.22;;;1.10;;
49728;SDS011;66333;49.798;10.968;2023-11-21T01:14:54;2.53;;;0.90;;
49728;SDS011;66333;49.798;10.968;2023-11-21T01:17:20;2.42;;;0.80;;
49728;SDS011;66333;49.798;10.968;2023-11-21T01:19:47;3.33;;;1.08;;
49728;SDS011;66333;49.798;10.968;2023-11-21T01:22:14;2.97;;;0.90;;
49728;SDS011;66333;49.798;10.968;2023-11-21T01:24:41;2.85;;;0.93;;
49728;SDS011;66333;49.798;10.968;2023-11-21T01:27:07;2.90;;;0.90;;
49728;SDS011;66333;49.798;10.968;2023-11-21T01:29:34;3.25;;;1.13;;
49728;SDS011;66333;49.798;10.968;2023-11-21T01:32:02;2.90;;;1.10;;
49728;SDS011;66333;49.798;10.968;2023-11-21T01:34:33;2.90;;;1.00;;
49728;SDS011;66333;49.798;10.968;2023-11-21T01:36:59;3.67;;;0.88;;
49728;SDS011;66333;49.798;10.968;2023-11-21T01:39:26;3.42;;;1.08;;
49728;SDS011;66333;49.798;10.968;2023-11-21T01:41:53;3.00;;;1.00;;
49728;SDS011;66333;49.798;10.968;2023-11-21T01:44:19;3.20;;;0.93;;
49728;SDS011;66333;49.798;10.968;2023-11-21T01:46:45;2.90;;;0.90;;
49728;SDS011;66333;49.798;10.968;2023-11-21T01:49:14;3.25;;;0.90;;
49728;SDS011;66333;49.798;10.968;2023-11-21T01:51:42;3.63;;;1.00;;
49728;SDS011;66333;49.798;10.968;2023-11-21T01:54:11;3.90;;;1.33;;
49728;SDS011;66333;49.798;10.968;2023-11-21T01:56:38;3.08;;;1.00;;
49728;SDS011;66333;49.798;10.968;2023-11-21T01:59:06;3.17;;;0.90;;
49728;SDS011;66333;49.798;10.968;2023-11-21T02:01:32;3.13;;;1.00;;
49728;SDS011;66333;49.798;10.968;2023-11-21T02:03:59;3.38;;;1.10;;
49728;SDS011;66333;49.798;10.968;2023-11-21T02:06:28;2.78;;;0.90;;
49728;SDS011;66333;49.798;10.968;2023-11-21T02:08:56;3.20;;;1.00;;
49728;SDS011;66333;49.798;10.968;2023-11-21T02:11:22;3.70;;;0.90;;
49728;SDS011;66333;49.798;10.968;2023-11-21T02:13:49;3.20;;;1.00;;
49728;SDS011;66333;49.798;10.968;2023-11-21T02:16:19;2.80;;;1.05;;
49728;SDS011;66333;49.798;10.968;2023-11-21T02:18:46;2.55;;;0.80;;
49728;SDS011;66333;49.798;10.968;2023-11-21T02:21:13;3.33;;;0.93;;
49728;SDS011;66333;49.798;10.968;2023-11-21T02:23:41;4.15;;;1.10;;
49728;SDS011;66333;49.798;10.968;2023-11-21T02:26:09;3.53;;;1.33;;
49728;SDS011;66333;49.798;10.968;2023-11-21T02:28:36;3.13;;;1.00;;
49728;SDS011;66333;49.798;10.968;2023-11-21T02:31:03;4.07;;;1.00;;
49728;SDS011;66333;49.798;10.968;2023-11-21T02:33:30;3.10;;;1.00;;
49728;SDS011;66333;49.798;10.968;2023-11-21T02:35:58;3.72;;;1.00;;
49728;SDS011;66333;49.798;10.968;2023-11-21T02:38:25;3.20;;;0.90;;
49728;SDS011;66333;49.798;10.968;2023-11-21T02:40:53;3.00;;;0.80;;
49728;SDS011;66333;49.798;10.968;2023-11-21T02:43:19;3.33;;;1.05;;
49728;SDS011;66333;49.798;10.968;2023-11-21T02:45:45;2.90;;;0.88;;
49728;SDS011;66333;49.798;10.968;2023-11-21T02:48:12;2.80;;;0.80;;
49728;SDS011;66333;49.798;10.968;2023-11-21T02:50:38;3.00;;;0.88;;
49728;SDS011;66333;49.798;10.968;2023-11-21T02:53:05;3.60;;;1.10;;
49728;SDS011;66333;49.798;10.968;2023-11-21T02:55:31;3.28;;;0.98;;
49728;SDS011;66333;49.798;10.968;2023-11-21T02:58:01;2.92;;;0.93;;
49728;SDS011;66333;49.798;10.968;2023-11-21T03:00:28;2.95;;;0.90;;
49728;SDS011;66333;49.798;10.968;2023-11-21T03:02:55;3.20;;;1.00;;
49728;SDS011;66333;49.798;10.968;2023-11-21T03:05:22;3.30;;;1.00;;
49728;SDS011;66333;49.798;10.968;2023-11-21T03:07:49;3.40;;;0.90;;
49728;SDS011;66333;49.798;10.968;2023-11-21T03:10:15;2.90;;;1.00;;
49728;SDS011;66333;49.798;10.968;2023-11-21T03:12:42;2.17;;;0.65;;
49728;SDS011;66333;49.798;10.968;2023-11-21T03:15:11;2.75;;;0.90;;
49728;SDS011;66333;49.798;10.968;2023-11-21T03:17:37;2.88;;;0.80;;
49728;SDS011;66333;49.798;10.968;2023-11-21T03:20:04;2.78;;;0.90;;
49728;SDS011;66333;49.798;10.968;2023-11-21T03:22:35;2.90;;;0.93;;
49728;SDS011;66333;49.798;10.968;2023-11-21T03:25:03;3.05;;;0.90;;
49728;SDS011;66333;49.798;10.968;2023-11-21T03:27:35;3.20;;;0.90;;
49728;SDS011;66333;49.798;10.968;2023-11-21T03:30:03;3.42;;;0.90;;
49728;SDS011;66333;49.798;10.968;2023-11-21T03:32:34;3.25;;;0.95;;
49728;SDS011;66333;49.798;10.968;2023-11-21T03:35:01;2.78;;;1.00;;
49728;SDS011;66333;49.798;10.968;2023-11-21T03:37:28;2.70;;;0.85;;
49728;SDS011;66333;49.798;10.968;2023-11-21T03:39:55;3.80;;;0.80;;
49728;SDS011;66333;49.798;10.968;2023-11-21T03:42:22;2.97;;;0.85;;
49728;SDS011;66333;49.798;10.968;2023-11-21T03:44:48;2.95;;;0.98;;
49728;SDS011;66333;49.798;10.968;2023-11-21T03:47:14;2.85;;;0.88;;
49728;SDS011;66333;49.798;10.968;2023-11-21T03:49:42;2.95;;;0.88;;
49728;SDS011;66333;49.798;10.968;2023-11-21T03:52:09;2.55;;;0.80;;
49728;SDS011;66333;49.798;10.968;2023-11-21T03:54:35;2.65;;;0.80;;
49728;SDS011;66333;49.798;10.968;2023-11-21T03:57:02;3.33;;;1.00;;
49728;SDS011;66333;49.798;10.968;2023-11-21T03:59:29;2.55;;;0.80;;
49728;SDS011;66333;49.798;10.968;2023-11-21T04:01:56;3.10;;;0.80;;
49728;SDS011;66333;49.798;10.968;2023-11-21T04:04:22;2.85;;;0.95;;
49728;SDS011;66333;49.798;10.968;2023-11-21T04:06:50;2.80;;;1.00;;
49728;SDS011;66333;49.798;10.968;2023-11-21T04:09:18;3.50;;;0.98;;
49728;SDS011;66333;49.798;10.968;2023-11-21T04:11:45;3.08;;;0.90;;
49728;SDS011;66333;49.798;10.968;2023-11-21T04:14:11;2.67;;;0.90;;
49728;SDS011;66333;49.798;10.968;2023-11-21T04:16:40;2.95;;;0.88;;
49728;SDS011;66333;49.798;10.968;2023-11-21T04:19:07;3.35;;;0.90;;
49728;SDS011;66333;49.798;10.968;2023-11-21T04:21:34;3.00;;;0.98;;
49728;SDS011;66333;49.798;10.968;2023-11-21T04:24:02;3.45;;;1.00;;
49728;SDS011;66333;49.798;10.968;2023-11-21T04:26:29;3.53;;;1.00;;
49728;SDS011;66333;49.798;10.968;2023-11-21T04:28:55;2.78;;;0.90;;
49728;SDS011;66333;49.798;10.968;2023-11-21T04:31:21;2.72;;;0.80;;
49728;SDS011;66333;49.798;10.968;2023-11-21T04:33:48;3.25;;;1.30;;
49728;SDS011;66333;49.798;10.968;2023-11-21T04:36:15;3.53;;;0.90;;
49728;SDS011;66333;49.798;10.968;2023-11-21T04:38:41;2.65;;;0.88;;
49728;SDS011;66333;49.798;10.968;2023-11-21T04:41:10;2.90;;;0.90;;
49728;SDS011;66333;49.798;10.968;2023-11-21T04:43:36;2.92;;;0.98;;
49728;SDS011;66333;49.798;10.968;2023-11-21T04:46:03;3.00;;;0.85;;
49728;SDS011;66333;49.798;10.968;2023-11-21T04:48:30;3.35;;;0.90;;
49728;SDS011;66333;49.798;10.968;2023-11-21T04:50:56;2.83;;;0.80;;
49728;SDS011;66333;49.798;10.968;2023-11-21T04:53:23;2.70;;;0.88;;
49728;SDS011;66333;49.798;10.968;2023-11-21T04:55:49;2.97;;;0.90;;
49728;SDS011;66333;49.798;10.968;2023-11-21T04:58:17;3.08;;;0.90;;
49728;SDS011;66333;49.798;10.968;2023-11-21T05:00:44;2.70;;;1.00;;
49728;SDS011;66333;49.798;10.968;2023-11-21T05:03:12;3.72;;;1.20;;
49728;SDS011;66333;49.798;10.968;2023-11-21T05:05:39;2.92;;;0.95;;
49728;SDS011;66333;49.798;10.968;2023-11-21T05:08:05;3.28;;;1.08;;
49728;SDS011;66333;49.798;10.968;2023-11-21T05:10:31;3.13;;;0.82;;
49728;SDS011;66333;49.798;10.968;2023-11-21T05:12:59;3.00;;;0.90;;
49728;SDS011;66333;49.798;10.968;2023-11-21T05:15:26;2.90;;;1.00;;
49728;SDS011;66333;49.798;10.968;2023-11-21T05:17:53;3.30;;;1.00;;
49728;SDS011;66333;49.798;10.968;2023-11-21T05:20:20;3.17;;;0.90;;
49728;SDS011;66333;49.798;10.968;2023-11-21T05:22:46;2.95;;;0.80;;
49728;SDS011;66333;49.798;10.968;2023-11-21T05:25:13;3.17;;;0.90;;
49728;SDS011;66333;49.798;10.968;2023-11-21T05:27:40;2.65;;;0.73;;
49728;SDS011;66333;49.798;10.968;2023-11-21T05:30:07;3.33;;;1.00;;
49728;SDS011;66333;49.798;10.968;2023-11-21T05:32:39;3.15;;;0.80;;
49728;SDS011;66333;49.798;10.968;2023-11-21T05:35:07;3.47;;;1.10;;
49728;SDS011;66333;49.798;10.968;2023-11-21T05:37:37;3.00;;;0.93;;
49728;SDS011;66333;49.798;10.968;2023-11-21T05:40:05;3.50;;;1.00;;
49728;SDS011;66333;49.798;10.968;2023-11-21T05:42:32;2.88;;;0.90;;
49728;SDS011;66333;49.798;10.968;2023-11-21T05:44:59;3.13;;;1.00;;
49728;SDS011;66333;49.798;10.968;2023-11-21T05:47:34;3.00;;;0.88;;
49728;SDS011;66333;49.798;10.968;2023-11-21T05:50:03;2.67;;;0.85;;
49728;SDS011;66333;49.798;10.968;2023-11-21T05:52:31;3.00;;;0.90;;
49728;SDS011;66333;49.798;10.968;2023-11-21T05:54:57;3.10;;;0.90;;
49728;SDS011;66333;49.798;10.968;2023-11-21T05:57:24;3.08;;;0.93;;
49728;SDS011;66333;49.798;10.968;2023-11-21T05:59:51;3.28;;;1.10;;
49728;SDS011;66333;49.798;10.968;2023-11-21T06:02:17;2.97;;;0.98;;
49728;SDS011;66333;49.798;10.968;2023-11-21T06:04:44;3.33;;;1.02;;
49728;SDS011;66333;49.798;10.968;2023-11-21T06:07:12;4.60;;;1.20;;
49728;SDS011;66333;49.798;10.968;2023-11-21T06:09:39;3.78;;;0.93;;
49728;SDS011;66333;49.798;10.968;2023-11-21T06:12:06;2.70;;;0.93;;
49728;SDS011;66333;49.798;10.968;2023-11-21T06:14:33;3.28;;;1.10;;
49728;SDS011;66333;49.798;10.968;2023-11-21T06:17:00;2.92;;;0.90;;
49728;SDS011;66333;49.798;10.968;2023-11-21T06:19:27;3.45;;;0.95;;
49728;SDS011;66333;49.798;10.968;2023-11-21T06:21:53;3.70;;;1.00;;
49728;SDS011;66333;49.798;10.968;2023-11-21T06:24:21;5.00;;;1.48;;
49728;SDS011;66333;49.798;10.968;2023-11-21T06:26:48;3.60;;;1.10;;
49728;SDS011;66333;49.798;10.968;2023-11-21T06:29:15;4.72;;;1.10;;
49728;SDS011;66333;49.798;10.968;2023-11-21T06:31:41;3.22;;;1.00;;
49728;SDS011;66333;49.798;10.968;2023-11-21T06:34:09;4.45;;;1.13;;
49728;SDS011;66333;49.798;10.968;2023-11-21T06:36:35;3.28;;;1.10;;
49728;SDS011;66333;49.798;10.968;2023-11-21T06:39:02;3.40;;;1.20;;
49728;SDS011;66333;49.798;10.968;2023-11-21T06:41:34;3.90;;;1.15;;
49728;SDS011;66333;49.798;10.968;2023-11-21T06:44:04;3.63;;;1.20;;
49728;SDS011;66333;49.798;10.968;2023-11-21T06:46:30;3.97;;;1.38;;
49728;SDS011;66333;49.798;10.968;2023-11-21T06:48:56;3.10;;;1.05;;
49728;SDS011;66333;49.798;10.968;2023-11-21T06:51:24;3.95;;;1.20;;
49728;SDS011;66333;49.798;10.968;2023-11-21T06:53:50;4.13;;;1.27;;
49728;SDS011;66333;49.798;10.968;2023-11-21T06:56:17;3.95;;;1.13;;
49728;SDS011;66333;49.798;10.968;2023-11-21T06:58:46;3.22;;;1.00;;
49728;SDS011;66333;49.798;10.968;2023-11-21T07:01:12;3.05;;;1.10;;
49728;SDS011;66333;49.798;10.968;2023-11-21T07:03:40;3.67;;;1.20;;
49728;SDS011;66333;49.798;10.968;2023-11-21T07:06:07;3.28;;;1.20;;
49728;SDS011;66333;49.798;10.968;2023-11-21T07:08:34;3.42;;;1.15;;
49728;SDS011;66333;49.798;10.968;2023-11-21T07:11:00;4.47;;;1.08;;
49728;SDS011;66333;49.798;10.968;2023-11-21T07:13:28;3.22;;;1.38;;
49728;SDS011;66333;49.798;10.968;2023-11-21T07:15:55;3.42;;;1.10;;
49728;SDS011;66333;49.798;10.968;2023-11-21T07:18:23;4.97;;;1.20;;
49728;SDS011;66333;49.798;10.968;2023-11-21T07:20:50;3.78;;;1.10;;
49728;SDS011;66333;49.798;10.968;2023-11-21T07:23:16;3.65;;;1.20;;
49728;SDS011;66333;49.798;10.968;2023-11-21T07:25:43;3.63;;;1.20;;
49728;SDS011;66333;49.798;10.968;2023-11-21T07:28:09;5.55;;;1.13;;
49728;SDS011;66333;49.798;10.968;2023-11-21T07:30:36;3.72;;;1.20;;
49728;SDS011;66333;49.798;10.968;2023-11-21T07:33:04;4.00;;;1.55;;
49728;SDS011;66333;49.798;10.968;2023-11-21T07:35:30;4.07;;;1.40;;
49728;SDS011;66333;49.798;10.968;2023-11-21T07:37:57;3.42;;;1.17;;
49728;SDS011;66333;49.798;10.968;2023-11-21T07:40:24;3.50;;;1.20;;
49728;SDS011;66333;49.798;10.968;2023-11-21T07:42:51;5.07;;;1.55;;
49728;SDS011;66333;49.798;10.968;2023-11-21T07:45:18;3.70;;;1.50;;
49728;SDS011;66333;49.798;10.968;2023-11-21T07:47:45;3.58;;;1.17;;
49728;SDS011;66333;49.798;10.968;2023-11-21T07:50:13;3.90;;;1.30;;
49728;SDS011;66333;49.798;10.968;2023-11-21T07:52:41;3.30;;;1.40;;
49728;SDS011;66333;49.798;10.968;2023-11-21T07:55:08;3.20;;;1.13;;
49728;SDS011;66333;49.798;10.968;2023-11-21T07:57:36;3.88;;;1.40;;
49728;SDS011;66333;49.798;10.968;2023-11-21T08:00:03;3.95;;;1.30;;
49728;SDS011;66333;49.798;10.968;2023-11-21T08:02:31;3.97;;;1.20;;
49728;SDS011;66333;49.798;10.968;2023-11-21T08:04:59;4.15;;;1.45;;
49728;SDS011;66333;49.798;10.968;2023-11-21T08:07:27;3.47;;;1.27;;
49728;SDS011;66333;49.798;10.968;2023-11-21T08:09:53;3.85;;;1.20;;
49728;SDS011;66333;49.798;10.968;2023-11-21T08:12:21;5.03;;;1.50;;
49728;SDS011;66333;49.798;10.968;2023-11-21T08:14:49;3.65;;;1.58;;
49728;SDS011;66333;49.798;10.968;2023-11-21T08:17:15;3.42;;;1.35;;
49728;SDS011;66333;49.798;10.968;2023-11-21T08:19:44;4.05;;;1.42;;
49728;SDS011;66333;49.798;10.968;2023-11-21T08:22:14;5.05;;;1.33;;
49728;SDS011;66333;49.798;10.968;2023-11-21T08:24:42;3.35;;;1.38;;
49728;SDS011;66333;49.798;10.968;2023-11-21T08:27:09;4.45;;;1.25;;
49728;SDS011;66333;49.798;10.968;2023-11-21T08:29:35;4.85;;;1.40;;
49728;SDS011;66333;49.798;10.968;2023-11-21T08:32:02;3.33;;;1.17;;
49728;SDS011;66333;49.798;10.968;2023-11-21T08:34:30;3.20;;;1.10;;
49728;SDS011;66333;49.798;10.968;2023-11-21T08:36:56;3.72;;;1.42;;
49728;SDS011;66333;49.798;10.968;2023-11-21T08:39:23;3.75;;;1.10;;
49728;SDS011;66333;49.798;10.968;2023-11-21T08:41:53;3.53;;;1.20;;
49728;SDS011;66333;49.798;10.968;2023-11-21T08:44:20;3.28;;;1.15;;
49728;SDS011;66333;49.798;10.968;2023-11-21T08:46:48;4.15;;;1.52;;
49728;SDS011;66333;49.798;10.968;2023-11-21T08:49:14;3.22;;;1.20;;
49728;SDS011;66333;49.798;10.968;2023-11-21T08:51:42;3.55;;;1.10;;
49728;SDS011;66333;49.798;10.968;2023-11-21T08:54:10;3.20;;;1.15;;
49728;SDS011;66333;49.798;10.968;2023-11-21T08:56:37;3.95;;;1.40;;
49728;SDS011;66333;49.798;10.968;2023-11-21T08:59:05;3.17;;;1.35;;
49728;SDS011;66333;49.798;10.968;2023-11-21T09:01:32;4.13;;;1.33;;
49728;SDS011;66333;49.798;10.968;2023-11-21T09:03:59;3.30;;;1.38;;
49728;SDS011;66333;49.798;10.968;2023-11-21T09:06:26;3.40;;;1.20;;
49728;SDS011;66333;49.798;10.968;2023-11-21T09:08:52;4.40;;;1.27;;
49728;SDS011;66333;49.798;10.968;2023-11-21T09:11:18;4.13;;;1.45;;
49728;SDS011;66333;49.798;10.968;2023-11-21T09:13:46;5.47;;;1.90;;
49728;SDS011;66333;49.798;10.968;2023-11-21T09:16:15;4.10;;;1.30;;
49728;SDS011;66333;49.798;10.968;2023-11-21T09:18:42;4.18;;;1.50;;
49728;SDS011;66333;49.798;10.968;2023-11-21T09:21:10;3.42;;;1.40;;
49728;SDS011;66333;49.798;10.968;2023-11-21T09:23:38;3.67;;;1.40;;
49728;SDS011;66333;49.798;10.968;2023-11-21T09:26:05;4.63;;;1.50;;
49728;SDS011;66333;49.798;10.968;2023-11-21T09:28:32;3.33;;;1.30;;
49728;SDS011;66333;49.798;10.968;2023-11-21T09:30:58;4.05;;;1.40;;
49728;SDS011;66333;49.798;10.968;2023-11-21T09:33:27;4.68;;;1.77;;
49728;SDS011;66333;49.798;10.968;2023-11-21T09:35:55;3.80;;;1.40;;
49728;SDS011;66333;49.798;10.968;2023-11-21T09:38:22;4.00;;;1.48;;
49728;SDS011;66333;49.798;10.968;2023-11-21T09:40:48;3.97;;;1.50;;
49728;SDS011;66333;49.798;10.968;2023-11-21T09:43:17;3.92;;;1.42;;
49728;SDS011;66333;49.798;10.968;2023-11-21T09:45:46;4.00;;;1.60;;
49728;SDS011;66333;49.798;10.968;2023-11-21T09:48:15;4.55;;;1.40;;
49728;SDS011;66333;49.798;10.968;2023-11-21T09:50:45;3.95;;;1.38;;
49728;SDS011;66333;49.798;10.968;2023-11-21T09:53:13;4.15;;;1.50;;
49728;SDS011;66333;49.798;10.968;2023-11-21T09:55:46;3.50;;;1.35;;
49728;SDS011;66333;49.798;10.968;2023-11-21T09:58:15;4.47;;;1.60;;
49728;SDS011;66333;49.798;10.968;2023-11-21T10:00:45;3.58;;;1.30;;
49728;SDS011;66333;49.798;10.968;2023-11-21T10:03:13;4.28;;;1.67;;
49728;SDS011;66333;49.798;10.968;2023-11-21T10:05:41;3.95;;;1.40;;
49728;SDS011;66333;49.798;10.968;2023-11-21T10:08:10;4.70;;;1.85;;
49728;SDS011;66333;49.798;10.968;2023-11-21T10:10:38;3.95;;;1.45;;
49728;SDS011;66333;49.798;10.968;2023-11-21T10:13:10;3.80;;;1.45;;
49728;SDS011;66333;49.798;10.968;2023-11-21T10:15:41;3.35;;;1.30;;
49728;SDS011;66333;49.798;10.968;2023-11-21T10:18:13;3.65;;;1.20;;
49728;SDS011;66333;49.798;10.968;2023-11-21T10:20:43;3.33;;;1.30;;
49728;SDS011;66333;49.798;10.968;2023-11-21T10:23:19;3.05;;;1.20;;
49728;SDS011;66333;49.798;10.968;2023-11-21T10:25:48;3.25;;;1.30;;
49728;SDS011;66333;49.798;10.968;2023-11-21T10:28:16;3.33;;;1.40;;
49728;SDS011;66333;49.798;10.968;2023-11-21T10:30:44;3.85;;;1.50;;
49728;SDS011;66333;49.798;10.968;2023-11-21T10:33:10;4.25;;;1.50;;
49728;SDS011;66333;49.798;10.968;2023-11-21T10:35:43;3.50;;;1.35;;
49728;SDS011;66333;49.798;10.968;2023-11-21T10:38:16;4.20;;;1.10;;
49728;SDS011;66333;49.798;10.968;2023-11-21T10:40:47;4.60;;;1.60;;
49728;SDS011;66333;49.798;10.968;2023-11-21T10:43:14;3.55;;;1.40;;
49728;SDS011;66333;49.798;10.968;2023-11-21T10:45:41;3.38;;;1.48;;
49728;SDS011;66333;49.798;10.968;2023-11-21T10:48:09;4.55;;;1.27;;
49728;SDS011;66333;49.798;10.968;2023-11-21T10:50:37;3.70;;;1.50;;
49728;SDS011;66333;49.798;10.968;2023-11-21T10:53:03;3.40;;;1.40;;
49728;SDS011;66333;49.798;10.968;2023-11-21T10:55:31;3.45;;;1.15;;
49728;SDS011;66333;49.798;10.968;2023-11-21T10:58:01;4.22;;;1.55;;
49728;SDS011;66333;49.798;10.968;2023-11-21T11:00:31;3.30;;;1.27;;
49728;SDS011;66333;49.798;10.968;2023-11-21T11:02:59;3.53;;;1.40;;
49728;SDS011;66333;49.798;10.968;2023-11-21T11:05:26;3.70;;;1.40;;
49728;SDS011;66333;49.798;10.968;2023-11-21T11:07:58;4.15;;;1.40;;
49728;SDS011;66333;49.798;10.968;2023-11-21T11:10:29;3.30;;;1.30;;
49728;SDS011;66333;49.798;10.968;2023-11-21T11:12:55;3.72;;;1.55;;
49728;SDS011;66333;49.798;10.968;2023-11-21T11:15:24;3.95;;;1.20;;
49728;SDS011;66333;49.798;10.968;2023-11-21T11:17:51;4.07;;;1.42;;
49728;SDS011;66333;49.798;10.968;2023-11-21T11:20:21;3.45;;;1.40;;
49728;SDS011;66333;49.798;10.968;2023-11-21T11:22:50;3.42;;;1.42;;
49728;SDS011;66333;49.798;10.968;2023-11-21T11:25:38;3.58;;;1.30;;
49728;SDS011;66333;49.798;10.968;2023-11-21T11:28:19;3.38;;;1.33;;
49728;SDS011;66333;49.798;10.968;2023-11-21T11:30:53;3.70;;;1.20;;
49728;SDS011;66333;49.798;10.968;2023-11-21T11:33:31;3.67;;;1.40;;
49728;SDS011;66333;49.798;10.968;2023-11-21T11:36:04;3.37;;;1.30;;
49728;SDS011;66333;49.798;10.968;2023-11-21T11:38:34;3.55;;;1.38;;
49728;SDS011;66333;49.798;10.968;2023-11-21T11:41:01;3.33;;;1.40;;
49728;SDS011;66333;49.798;10.968;2023-11-21T11:43:31;4.80;;;1.40;;
49728;SDS011;66333;49.798;10.968;2023-11-21T11:46:06;3.20;;;1.20;;
49728;SDS011;66333;49.798;10.968;2023-11-21T11:48:35;3.70;;;1.20;;
49728;SDS011;66333;49.798;10.968;2023-11-21T11:51:12;3.40;;;1.38;;
49728;SDS011;66333;49.798;10.968;2023-11-21T11:53:46;3.45;;;1.30;;
49728;SDS011;66333;49.798;10.968;2023-11-21T11:56:22;3.40;;;1.30;;
49728;SDS011;66333;49.798;10.968;2023-11-21T11:58:51;3.65;;;1.38;;
49728;SDS011;66333;49.798;10.968;2023-11-21T12:01:20;3.85;;;1.20;;
49728;SDS011;66333;49.798;10.968;2023-11-21T12:06:59;3.38;;;1.30;;
49728;SDS011;66333;49.798;10.968;2023-11-21T12:09:28;3.28;;;1.20;;
49728;SDS011;66333;49.798;10.968;2023-11-21T12:11:56;3.40;;;1.17;;
49728;SDS011;66333;49.798;10.968;2023-11-21T12:14:23;3.30;;;1.20;;
49728;SDS011;66333;49.798;10.968;2023-11-21T12:16:51;3.72;;;1.40;;
49728;SDS011;66333;49.798;10.968;2023-11-21T12:19:18;3.70;;;1.50;;
49728;SDS011;66333;49.798;10.968;2023-11-21T12:21:47;3.55;;;1.15;;
49728;SDS011;66333;49.798;10.968;2023-11-21T12:24:15;4.07;;;1.17;;
49728;SDS011;66333;49.798;10.968;2023-11-21T12:26:42;3.50;;;1.52;;
49728;SDS011;66333;49.798;10.968;2023-11-21T12:29:09;3.53;;;1.42;;
49728;SDS011;66333;49.798;10.968;2023-11-21T12:31:35;3.95;;;1.52;;
49728;SDS011;66333;49.798;10.968;2023-11-21T12:34:03;3.88;;;1.15;;
49728;SDS011;66333;49.798;10.968;2023-11-21T12:36:31;3.85;;;1.20;;
49728;SDS011;66333;49.798;10.968;2023-11-21T12:38:59;3.60;;;1.60;;
49728;SDS011;66333;49.798;10.968;2023-11-21T12:41:27;3.53;;;1.52;;
49728;SDS011;66333;49.798;10.968;2023-11-21T12:43:54;3.60;;;1.40;;
49728;SDS011;66333;49.798;10.968;2023-11-21T12:46:21;3.20;;;1.20;;
49728;SDS011;66333;49.798;10.968;2023-11-21T12:48:47;3.67;;;1.40;;
49728;SDS011;66333;49.798;10.968;2023-11-21T12:51:16;3.80;;;1.30;;
49728;SDS011;66333;49.798;10.968;2023-11-21T12:53:43;3.67;;;1.33;;
49728;SDS011;66333;49.798;10.968;2023-11-21T12:56:10;3.72;;;1.45;;
49728;SDS011;66333;49.798;10.968;2023-11-21T12:58:38;3.85;;;1.27;;
49728;SDS011;66333;49.798;10.968;2023-11-21T13:01:07;3.45;;;1.20;;
49728;SDS011;66333;49.798;10.968;2023-11-21T13:03:37;3.15;;;1.23;;
49728;SDS011;66333;49.798;10.968;2023-11-21T13:06:04;4.50;;;1.33;;
49728;SDS011;66333;49.798;10.968;2023-11-21T13:08:34;4.57;;;1.70;;
49728;SDS011;66333;49.798;10.968;2023-11-21T13:11:00;4.18;;;1.30;;
49728;SDS011;66333;49.798;10.968;2023-11-21T13:13:28;3.58;;;1.60;;
49728;SDS011;66333;49.798;10.968;2023-11-21T13:15:55;4.20;;;1.55;;
49728;SDS011;66333;49.798;10.968;2023-11-21T13:18:22;5.90;;;1.58;;
49728;SDS011;66333;49.798;10.968;2023-11-21T13:20:50;4.28;;;1.40;;
49728;SDS011;66333;49.798;10.968;2023-11-21T13:23:16;3.30;;;1.38;;
49728;SDS011;66333;49.798;10.968;2023-11-21T13:25:44;3.50;;;1.30;;
49728;SDS011;66333;49.798;10.968;2023-11-21T13:28:12;3.53;;;1.30;;
49728;SDS011;66333;49.798;10.968;2023-11-21T13:30:40;3.40;;;1.30;;
49728;SDS011;66333;49.798;10.968;2023-11-21T13:33:09;3.28;;;1.20;;
49728;SDS011;66333;49.798;10.968;2023-11-21T13:35:43;3.47;;;1.17;;
49728;SDS011;66333;49.798;10.968;2023-11-21T13:38:13;3.47;;;1.38;;
49728;SDS011;66333;49.798;10.968;2023-11-21T13:40:42;3.80;;;1.40;;
49728;SDS011;66333;49.798;10.968;2023-11-21T13:43:18;3.22;;;1.30;;
49728;SDS011;66333;49.798;10.968;2023-11-21T13:45:47;4.05;;;1.45;;
49728;SDS011;66333;49.798;10.968;2023-11-21T13:48:23;4.15;;;1.60;;
49728;SDS011;66333;49.798;10.968;2023-11-21T13:50:56;3.58;;;1.40;;
49728;SDS011;66333;49.798;10.968;2023-11-21T13:53:26;3.85;;;1.30;;
49728;SDS011;66333;49.798;10.968;2023-11-21T13:55:54;3.65;;;1.42;;
49728;SDS011;66333;49.798;10.968;2023-11-21T13:58:22;4.07;;;1.50;;
49728;SDS011;66333;49.798;10.968;2023-11-21T14:01:00;3.90;;;1.50;;
49728;SDS011;66333;49.798;10.968;2023-11-21T14:03:30;3.88;;;1.45;;
49728;SDS011;66333;49.798;10.968;2023-11-21T14:06:04;4.40;;;1.30;;
49728;SDS011;66333;49.798;10.968;2023-11-21T14:11:07;4.85;;;1.40;;
49728;SDS011;66333;49.798;10.968;2023-11-21T14:13:36;3.20;;;1.20;;
49728;SDS011;66333;49.798;10.968;2023-11-21T14:16:03;4.60;;;1.50;;
49728;SDS011;66333;49.798;10.968;2023-11-21T14:18:31;4.30;;;1.52;;
49728;SDS011;66333;49.798;10.968;2023-11-21T14:21:03;4.47;;;1.42;;
49728;SDS011;66333;49.798;10.968;2023-11-21T14:23:30;3.38;;;1.40;;
49728;SDS011;66333;49.798;10.968;2023-11-21T14:25:58;4.93;;;1.55;;
49728;SDS011;66333;49.798;10.968;2023-11-21T14:28:27;3.47;;;1.38;;
49728;SDS011;66333;49.798;10.968;2023-11-21T14:30:54;4.00;;;1.50;;
49728;SDS011;66333;49.798;10.968;2023-11-21T14:33:21;4.00;;;1.35;;
49728;SDS011;66333;49.798;10.968;2023-11-21T14:35:48;4.47;;;1.40;;
49728;SDS011;66333;49.798;10.968;2023-11-21T14:38:15;4.20;;;1.48;;
49728;SDS011;66333;49.798;10.968;2023-11-21T14:40:43;6.00;;;1.58;;
49728;SDS011;66333;49.798;10.968;2023-11-21T14:43:09;3.95;;;1.60;;